createdAt,value
2022-09-20T00:00:02.813Z,67.13
2022-09-20T00:01:10.807Z,66.85
2022-09-20T00:02:13.624Z,67.62
2022-09-20T00:03:16.908Z,66.71
2022-09-20T00:04:20.085Z,67.01
2022-09-20T00:05:22.057Z,67.49
2022-09-20T00:06:27.187Z,67.30
2022-09-20T00:07:29.036Z,66.93
2022-09-20T00:08:32.195Z,66.70
2022-09-20T00:09:34.198Z,67.51
2022-09-20T00:10:39.318Z,66.63
2022-09-20T00:11:41.137Z,67.00
2022-09-20T00:12:44.240Z,67.60
2022-09-20T00:13:48.269Z,67.12
2022-09-20T00:14:51.175Z,67.36
2022-09-20T00:15:52.965Z,67.49
2022-09-20T00:16:57.237Z,66.60
2022-09-20T00:17:59.334Z,67.21
2022-09-20T00:19:04.126Z,66.76
2022-09-20T00:20:06.486Z,66.58
2022-09-20T00:21:13.763Z,67.54
2022-09-20T00:22:15.534Z,67.50
2022-09-20T00:23:19.068Z,66.82
2022-09-20T00:24:20.913Z,67.16
2022-09-20T00:25:23.742Z,66.62
2022-09-20T00:26:26.448Z,66.66
2022-09-20T00:27:29.291Z,66.87
2022-09-20T00:28:32.495Z,66.84
2022-09-20T00:29:35.319Z,67.07
2022-09-20T00:30:37.688Z,66.67
2022-09-20T00:31:42.779Z,66.62
2022-09-20T00:32:46.268Z,67.40
2022-09-20T00:34:07.157Z,67.33
2022-09-20T00:35:10.922Z,67.53
2022-09-20T00:36:13.485Z,66.59
2022-09-20T00:37:16.428Z,66.83
2022-09-20T00:38:18.244Z,67.15
2022-09-20T00:39:21.133Z,67.39
2022-09-20T00:40:26.926Z,67.50
2022-09-20T00:41:31.259Z,67.38
2022-09-20T00:42:33.546Z,66.86
2022-09-20T00:43:38.588Z,67.61
2022-09-20T00:44:54.056Z,67.98
2022-09-20T00:45:56.946Z,67.21
2022-09-20T00:47:00.995Z,68.41
2022-09-20T00:48:11.324Z,67.07
2022-09-20T00:49:18.911Z,67.71
2022-09-20T00:50:29.364Z,66.84
2022-09-20T00:51:34.891Z,67.49
2022-09-20T00:52:38.153Z,66.60
2022-09-20T00:53:44.781Z,67.26
2022-09-20T00:54:49.894Z,66.87
2022-09-20T00:55:55.601Z,67.66
2022-09-20T00:56:58.974Z,67.39
2022-09-20T00:58:02.725Z,67.69
2022-09-20T00:59:10.929Z,66.88
2022-09-20T01:00:15.296Z,66.71
2022-09-20T01:01:18.053Z,66.81
2022-09-20T01:02:25.581Z,67.02
2022-09-20T01:03:32.083Z,67.59
2022-09-20T01:04:36.783Z,67.36
2022-09-20T01:05:40.691Z,67.47
2022-09-20T01:06:46.248Z,67.90
2022-09-20T01:07:52.320Z,68.18
2022-09-20T01:08:56.543Z,66.89
2022-09-20T01:09:59.341Z,67.65
2022-09-20T01:11:01.772Z,67.83
2022-09-20T01:12:10.162Z,67.71
2022-09-20T01:13:12.951Z,66.79
2022-09-20T01:14:17.104Z,67.68
2022-09-20T01:15:22.950Z,67.42
2022-09-20T01:16:26.837Z,67.87
2022-09-20T01:17:33.989Z,66.82
2022-09-20T01:18:38.217Z,67.20
2022-09-20T01:19:52.578Z,66.80
2022-09-20T01:20:56.084Z,66.99
2022-09-20T01:21:59.167Z,67.35
2022-09-20T01:23:26.148Z,66.88
2022-09-20T01:24:39.993Z,67.16
2022-09-20T01:26:27.451Z,67.91
2022-09-20T01:27:46.343Z,67.46
2022-09-20T01:28:50.376Z,67.85
2022-09-20T01:30:04.465Z,66.77
2022-09-20T01:31:11.258Z,67.68
2022-09-20T01:32:17.502Z,67.86
2022-09-20T01:33:28.676Z,66.93
2022-09-20T01:34:36.422Z,67.67
2022-09-20T01:35:41.295Z,67.26
2022-09-20T01:36:50.575Z,67.14
2022-09-20T01:38:06.698Z,67.50
2022-09-20T01:39:16.017Z,67.45
2022-09-20T01:40:28.074Z,66.96
2022-09-20T01:41:37.614Z,67.29
2022-09-20T01:42:51.176Z,67.35
2022-09-20T01:43:55.871Z,67.78
2022-09-20T01:45:04.418Z,67.31
2022-09-20T01:46:24.786Z,67.16
2022-09-20T01:47:36.717Z,68.03
2022-09-20T01:48:40.316Z,68.19
2022-09-20T01:49:51.652Z,67.29
2022-09-20T01:51:18.925Z,67.45
2022-09-20T01:53:05.854Z,67.40
2022-09-20T01:54:28.276Z,68.15
2022-09-20T01:56:15.008Z,67.94
2022-09-20T01:58:01.911Z,67.89
2022-09-20T01:59:32.797Z,68.07
2022-09-20T02:00:51.810Z,67.44
2022-09-20T02:02:28.434Z,68.07
2022-09-20T02:04:04.411Z,67.26
2022-09-20T02:05:42.029Z,68.22
2022-09-20T02:07:05.165Z,68.39
2022-09-20T02:08:31.714Z,68.01
2022-09-20T02:09:53.707Z,67.59
2022-09-20T02:11:17.078Z,67.80
2022-09-20T02:12:39.652Z,67.77
2022-09-20T02:14:02.045Z,67.70
2022-09-20T02:15:15.241Z,67.36
2022-09-20T02:16:37.181Z,67.35
2022-09-20T02:17:50.592Z,67.73
2022-09-20T02:19:22.038Z,68.29
2022-09-20T02:20:33.366Z,67.64
2022-09-20T02:21:45.570Z,68.31
2022-09-20T02:23:11.820Z,68.44
2022-09-20T02:24:24.388Z,67.54
2022-09-20T02:25:45.729Z,68.02
2022-09-20T02:26:58.323Z,68.11
2022-09-20T02:28:21.792Z,68.20
2022-09-20T02:29:35.545Z,68.22
2022-09-20T02:30:50.649Z,68.25
2022-09-20T02:32:07.176Z,67.49
2022-09-20T02:33:18.739Z,67.52
2022-09-20T02:34:44.476Z,67.94
2022-09-20T02:35:59.880Z,67.51
2022-09-20T02:37:18.612Z,67.71
2022-09-20T02:38:34.591Z,68.27
2022-09-20T02:39:43.106Z,67.65
2022-09-20T02:41:12.108Z,67.89
2022-09-20T02:42:19.640Z,68.62
2022-09-20T02:43:28.864Z,67.89
2022-09-20T02:44:53.418Z,67.53
2022-09-20T02:46:01.772Z,68.59
2022-09-20T02:47:13.611Z,68.29
2022-09-20T02:48:22.175Z,67.53
2022-09-20T02:49:36.012Z,67.58
2022-09-20T02:50:46.725Z,68.07
2022-09-20T02:51:53.752Z,67.80
2022-09-20T02:53:12.388Z,68.32
2022-09-20T02:54:28.830Z,67.78
2022-09-20T02:55:41.838Z,68.76
2022-09-20T02:56:51.900Z,68.06
2022-09-20T02:58:02.520Z,67.97
2022-09-20T02:59:11.459Z,68.48
2022-09-20T03:00:21.530Z,68.56
2022-09-20T03:01:35.171Z,68.77
2022-09-20T03:02:51.310Z,67.73
2022-09-20T03:04:02.581Z,67.69
2022-09-20T03:05:15.302Z,67.58
2022-09-20T03:06:27.502Z,68.12
2022-09-20T03:07:42.567Z,68.75
2022-09-20T03:08:54.220Z,68.16
2022-09-20T03:10:08.069Z,68.31
2022-09-20T03:11:18.627Z,68.62
2022-09-20T03:12:34.684Z,67.74
2022-09-20T03:13:50.409Z,67.56
2022-09-20T03:15:06.063Z,68.66
2022-09-20T03:16:17.171Z,68.20
2022-09-20T03:17:28.392Z,67.57
2022-09-20T03:18:42.438Z,67.56
2022-09-20T03:19:58.732Z,68.65
2022-09-20T03:21:13.996Z,67.83
2022-09-20T03:22:28.687Z,68.78
2022-09-20T03:23:48.118Z,67.73
2022-09-20T03:25:09.341Z,67.83
2022-09-20T03:26:24.146Z,67.86
2022-09-20T03:27:32.738Z,67.80
2022-09-20T03:28:50.773Z,68.45
2022-09-20T03:30:04.930Z,67.99
2022-09-20T03:31:23.499Z,68.59
2022-09-20T03:32:43.470Z,67.60
2022-09-20T03:33:54.041Z,68.51
2022-09-20T03:35:09.178Z,68.20
2022-09-20T03:36:36.465Z,68.23
2022-09-20T03:37:59.064Z,67.59
2022-09-20T03:39:23.217Z,68.58
2022-09-20T03:40:48.274Z,67.86
2022-09-20T03:42:16.510Z,67.85
2022-09-20T03:43:33.281Z,67.71
2022-09-20T03:44:54.095Z,67.69
2022-09-20T03:46:13.602Z,67.52
2022-09-20T03:47:31.989Z,67.66
2022-09-20T03:49:00.121Z,68.34
2022-09-20T03:50:25.582Z,68.29
2022-09-20T03:51:34.121Z,67.36
2022-09-20T03:52:54.712Z,67.92
2022-09-20T03:54:27.570Z,68.42
2022-09-20T03:55:59.544Z,67.72
2022-09-20T03:57:21.353Z,67.68
2022-09-20T03:58:35.141Z,67.52
2022-09-20T03:59:55.633Z,68.16
2022-09-20T04:01:15.633Z,67.63
2022-09-20T04:02:34.542Z,67.93
2022-09-20T04:03:45.936Z,68.34
2022-09-20T04:04:55.825Z,67.96
2022-09-20T04:06:16.503Z,68.45
2022-09-20T04:07:23.739Z,67.75
2022-09-20T04:08:44.468Z,67.72
2022-09-20T04:10:13.780Z,67.75
2022-09-20T04:11:27.170Z,68.44
2022-09-20T04:12:40.443Z,67.52
2022-09-20T04:13:51.816Z,68.18
2022-09-20T04:15:08.435Z,68.65
2022-09-20T04:16:25.868Z,67.76
2022-09-20T04:17:39.000Z,68.33
2022-09-20T04:18:49.175Z,67.76
2022-09-20T04:19:57.916Z,68.66
2022-09-20T04:21:07.586Z,68.06
2022-09-20T04:22:09.815Z,68.18
2022-09-20T04:23:26.464Z,67.60
2022-09-20T04:24:38.361Z,67.89
2022-09-20T04:25:44.614Z,68.69
2022-09-20T04:26:51.550Z,68.48
2022-09-20T04:28:00.096Z,67.93
2022-09-20T04:29:18.296Z,68.39
2022-09-20T04:30:22.567Z,68.79
2022-09-20T04:31:36.659Z,67.94
2022-09-20T04:32:45.582Z,68.50
2022-09-20T04:33:51.287Z,67.55
2022-09-20T04:35:22.874Z,68.36
2022-09-20T04:36:38.884Z,68.35
2022-09-20T04:37:44.167Z,67.73
2022-09-20T04:38:54.436Z,67.98
2022-09-20T04:40:08.231Z,68.66
2022-09-20T04:41:34.572Z,68.28
2022-09-20T04:43:17.373Z,67.90
2022-09-20T04:44:42.375Z,68.86
2022-09-20T04:46:18.256Z,68.74
2022-09-20T04:47:53.081Z,68.32
2022-09-20T04:49:49.157Z,68.34
2022-09-20T04:51:27.369Z,68.29
2022-09-20T04:53:09.069Z,67.90
2022-09-20T04:54:56.369Z,67.79
2022-09-20T04:56:01.850Z,67.74
2022-09-20T04:57:23.234Z,68.58
2022-09-20T04:58:48.614Z,68.11
2022-09-20T05:00:03.116Z,68.67
2022-09-20T05:01:48.845Z,67.88
2022-09-20T05:03:24.204Z,67.98
2022-09-20T05:05:02.859Z,67.62
2022-09-20T05:06:26.458Z,67.59
2022-09-20T05:08:06.874Z,67.52
2022-09-20T05:09:27.838Z,67.50
2022-09-20T05:11:02.211Z,68.69
2022-09-20T05:12:28.128Z,68.33
2022-09-20T05:13:46.582Z,68.25
2022-09-20T05:15:09.126Z,67.74
2022-09-20T05:16:21.873Z,67.82
2022-09-20T05:17:37.066Z,68.22
2022-09-20T05:18:59.429Z,68.30
2022-09-20T05:20:25.237Z,67.58
2022-09-20T05:21:55.971Z,68.64
2022-09-20T05:23:23.955Z,68.03
2022-09-20T05:24:44.067Z,67.62
2022-09-20T05:25:59.894Z,67.82
2022-09-20T05:27:19.569Z,68.54
2022-09-20T05:28:29.201Z,68.04
2022-09-20T05:29:38.436Z,68.53
2022-09-20T05:30:46.917Z,68.01
2022-09-20T05:31:52.960Z,67.84
2022-09-20T05:33:08.827Z,68.50
2022-09-20T05:34:20.049Z,67.74
2022-09-20T05:35:30.399Z,68.16
2022-09-20T05:36:41.748Z,68.35
2022-09-20T05:37:51.533Z,68.47
2022-09-20T05:39:03.555Z,67.85
2022-09-20T05:40:19.058Z,68.13
2022-09-20T05:41:32.457Z,68.14
2022-09-20T05:42:41.972Z,68.05
2022-09-20T05:43:55.180Z,68.65
2022-09-20T05:45:12.772Z,67.83
2022-09-20T05:46:24.035Z,67.75
2022-09-20T05:47:35.981Z,68.58
2022-09-20T05:48:50.618Z,67.74
2022-09-20T05:50:08.422Z,68.36
2022-09-20T05:51:20.246Z,68.24
2022-09-20T05:52:37.862Z,67.83
2022-09-20T05:54:08.084Z,68.62
2022-09-20T05:55:47.777Z,67.68
2022-09-20T05:56:57.207Z,67.85
2022-09-20T05:58:23.439Z,68.31
2022-09-20T05:59:45.965Z,68.82
2022-09-20T06:00:54.046Z,68.41
2022-09-20T06:02:11.425Z,67.82
2022-09-20T06:03:26.992Z,68.06
2022-09-20T06:04:38.652Z,67.71
2022-09-20T06:06:03.518Z,67.98
2022-09-20T06:07:21.865Z,67.75
2022-09-20T06:09:04.273Z,68.26
2022-09-20T06:10:34.867Z,67.88
2022-09-20T06:12:01.655Z,67.80
2022-09-20T06:13:21.518Z,68.11
2022-09-20T06:14:38.707Z,68.26
2022-09-20T06:15:53.617Z,68.29
2022-09-20T06:17:05.317Z,68.77
2022-09-20T06:18:23.470Z,68.61
2022-09-20T06:19:36.478Z,68.79
2022-09-20T06:20:48.739Z,68.48
2022-09-20T06:21:56.029Z,68.59
2022-09-20T06:23:01.938Z,68.57
2022-09-20T06:24:24.222Z,68.07
2022-09-20T06:25:31.990Z,68.76
2022-09-20T06:26:36.915Z,67.99
2022-09-20T06:27:44.755Z,68.87
2022-09-20T06:28:50.254Z,68.32
2022-09-20T06:29:58.724Z,67.89
2022-09-20T06:31:09.078Z,68.76
2022-09-20T06:32:10.912Z,67.97
2022-09-20T06:33:16.962Z,67.90
2022-09-20T06:34:18.911Z,68.77
2022-09-20T06:35:24.184Z,67.82
2022-09-20T06:36:47.170Z,68.05
2022-09-20T06:38:13.590Z,68.83
2022-09-20T06:39:43.527Z,68.45
2022-09-20T06:41:07.040Z,68.97
2022-09-20T06:42:10.558Z,68.76
2022-09-20T06:43:14.432Z,68.88
2022-09-20T06:44:17.558Z,67.79
2022-09-20T06:45:19.370Z,68.17
2022-09-20T06:46:22.660Z,69.09
2022-09-20T06:47:26.114Z,68.93
2022-09-20T06:48:31.478Z,68.92
2022-09-20T06:49:35.945Z,69.05
2022-09-20T06:50:37.753Z,69.21
2022-09-20T06:51:41.414Z,69.29
2022-09-20T06:52:44.969Z,68.59
2022-09-20T06:53:50.126Z,68.91
2022-09-20T06:54:54.675Z,68.64
2022-09-20T06:55:58.512Z,68.58
2022-09-20T06:57:05.811Z,69.14
2022-09-20T06:58:09.835Z,69.43
2022-09-20T06:59:12.798Z,68.25
2022-09-20T07:00:15.945Z,68.06
2022-09-20T07:01:29.281Z,73.77
2022-09-20T07:02:32.207Z,77.56
2022-09-20T07:03:35.119Z,77.01
2022-09-20T07:04:40.195Z,74.83
2022-09-20T07:05:42.181Z,72.70
2022-09-20T07:06:44.978Z,71.90
2022-09-20T07:07:47.521Z,71.53
2022-09-20T07:08:52.745Z,64.82
2022-09-20T07:09:54.611Z,64.71
2022-09-20T07:10:57.380Z,65.21
2022-09-20T07:11:59.327Z,65.78
2022-09-20T07:13:03.131Z,66.14
2022-09-20T07:14:07.954Z,68.27
2022-09-20T07:15:10.451Z,69.54
2022-09-20T07:16:15.171Z,69.69
2022-09-20T07:17:17.045Z,70.66
2022-09-20T07:18:19.862Z,71.42
2022-09-20T07:19:23.348Z,71.86
2022-09-20T07:20:26.265Z,71.59
2022-09-20T07:21:29.163Z,73.20
2022-09-20T07:22:31.014Z,71.92
2022-09-20T07:23:34.190Z,73.61
2022-09-20T07:24:37.446Z,73.79
2022-09-20T07:25:40.356Z,74.55
2022-09-20T07:26:55.408Z,75.23
2022-09-20T07:27:58.679Z,75.80
2022-09-20T07:29:02.111Z,76.69
2022-09-20T07:30:04.717Z,75.80
2022-09-20T07:31:07.447Z,76.07
2022-09-20T07:32:09.294Z,77.30
2022-09-20T07:33:17.114Z,76.19
2022-09-20T07:34:20.225Z,76.92
2022-09-20T07:35:23.049Z,76.27
2022-09-20T07:36:25.127Z,77.20
2022-09-20T07:37:27.910Z,77.48
2022-09-20T07:38:29.715Z,77.38
2022-09-20T07:39:32.553Z,77.58
2022-09-20T07:40:36.111Z,77.78
2022-09-20T07:41:38.978Z,77.57
2022-09-20T07:42:40.874Z,77.37
2022-09-20T07:43:43.709Z,78.55
2022-09-20T07:44:45.551Z,78.38
2022-09-20T07:45:54.983Z,78.09
2022-09-20T07:46:58.253Z,79.25
2022-09-20T07:48:05.162Z,79.04
2022-09-20T07:49:06.982Z,79.27
2022-09-20T07:50:11.229Z,77.71
2022-09-20T07:51:13.882Z,76.84
2022-09-20T07:52:16.705Z,77.80
2022-09-20T07:53:19.637Z,77.63
2022-09-20T07:54:21.774Z,78.26
2022-09-20T07:55:24.912Z,77.17
2022-09-20T07:56:29.121Z,78.68
2022-09-20T07:57:35.203Z,79.48
2022-09-20T07:58:38.371Z,79.11
2022-09-20T07:59:40.299Z,78.56
2022-09-20T08:00:43.091Z,79.62
2022-09-20T08:01:45.081Z,79.54
2022-09-20T08:02:47.854Z,79.74
2022-09-20T08:03:49.958Z,78.48
2022-09-20T08:04:52.816Z,78.95
2022-09-20T08:05:59.624Z,79.58
2022-09-20T08:07:02.486Z,78.96
2022-09-20T08:08:04.577Z,78.77
2022-09-20T08:09:11.132Z,79.15
2022-09-20T08:10:13.429Z,79.13
2022-09-20T08:11:18.562Z,79.19
2022-09-20T08:15:12.079Z,78.94
2022-09-20T08:16:17.058Z,78.26
2022-09-20T08:17:20.053Z,79.31
2022-09-20T08:18:22.337Z,78.92
2022-09-20T08:19:25.194Z,78.86
2022-09-20T08:20:27.061Z,77.97
2022-09-20T08:21:32.528Z,79.34
2022-09-20T08:22:35.372Z,78.38
2022-09-20T08:23:38.724Z,78.95
2022-09-20T08:24:42.485Z,80.53
2022-09-20T08:25:45.244Z,79.49
2022-09-20T08:26:48.420Z,78.55
2022-09-20T08:27:54.151Z,76.21
2022-09-20T08:28:58.376Z,75.50
2022-09-20T08:30:01.246Z,75.55
2022-09-20T08:31:03.770Z,76.15
2022-09-20T08:32:06.789Z,75.68
2022-09-20T08:33:08.607Z,74.69
2022-09-20T08:34:13.952Z,74.03
2022-09-20T08:35:16.135Z,74.25
2022-09-20T08:36:22.143Z,74.13
2022-09-20T08:37:25.067Z,73.06
2022-09-20T08:39:58.848Z,71.46
2022-09-20T08:41:07.611Z,71.69
2022-09-20T08:42:18.323Z,72.95
2022-09-20T08:43:22.827Z,72.04
2022-09-20T08:44:34.967Z,73.82
2022-09-20T08:45:40.727Z,72.73
2022-09-20T08:46:46.062Z,73.08
2022-09-20T08:47:56.517Z,72.34
2022-09-20T08:49:00.663Z,73.52
2022-09-20T08:50:10.007Z,72.97
2022-09-20T08:51:22.606Z,75.48
2022-09-20T08:52:36.218Z,72.77
2022-09-20T08:53:49.254Z,73.04
2022-09-20T08:54:52.710Z,74.31
2022-09-20T08:55:57.773Z,74.49
2022-09-20T08:57:07.126Z,74.71
2022-09-20T08:58:13.571Z,74.60
2022-09-20T08:59:20.008Z,73.92
2022-09-20T09:00:26.346Z,73.16
2022-09-20T09:01:29.451Z,73.77
2022-09-20T09:02:34.285Z,73.81
2022-09-20T09:03:36.204Z,74.66
2022-09-20T09:04:39.038Z,75.63
2022-09-20T09:05:44.323Z,74.99
2022-09-20T09:06:49.305Z,75.33
2022-09-20T09:07:52.029Z,75.36
2022-09-20T09:08:59.149Z,75.26
2022-09-20T09:10:02.841Z,74.92
2022-09-20T09:11:09.087Z,75.72
2022-09-20T09:12:22.858Z,73.97
2022-09-20T09:13:30.165Z,75.17
2022-09-20T09:14:54.882Z,75.56
2022-09-20T09:16:01.210Z,75.13
2022-09-20T09:17:03.110Z,76.77
2022-09-20T09:18:10.220Z,76.96
2022-09-20T09:19:36.819Z,74.54
2022-09-20T09:20:43.368Z,75.83
2022-09-20T09:21:46.361Z,73.39
2022-09-20T09:23:01.270Z,75.87
2022-09-20T09:24:05.580Z,74.42
2022-09-20T09:25:25.212Z,73.52
2022-09-20T09:26:28.157Z,73.65
2022-09-20T09:27:30.963Z,74.33
2022-09-20T09:28:36.877Z,74.83
2022-09-20T09:29:50.503Z,74.66
2022-09-20T09:30:54.156Z,74.74
2022-09-20T09:31:56.140Z,75.14
2022-09-20T09:33:27.897Z,72.47
2022-09-20T09:34:34.052Z,72.46
2022-09-20T09:35:37.573Z,72.40
2022-09-20T09:36:44.692Z,73.57
2022-09-20T09:37:55.144Z,73.03
2022-09-20T09:39:17.341Z,74.17
2022-09-20T09:40:19.588Z,73.61
2022-09-20T09:41:26.416Z,74.13
2022-09-20T09:42:29.818Z,73.09
2022-09-20T09:43:35.432Z,72.94
2022-09-20T09:44:37.264Z,71.88
2022-09-20T09:45:41.661Z,72.92
2022-09-20T09:46:44.140Z,74.08
2022-09-20T09:47:47.428Z,72.60
2022-09-20T09:49:09.417Z,72.66
2022-09-20T09:50:23.926Z,72.89
2022-09-20T09:51:26.753Z,72.88
2022-09-20T09:52:33.232Z,73.59
2022-09-20T09:53:36.618Z,72.87
2022-09-20T09:54:41.464Z,72.24
2022-09-20T09:56:00.754Z,72.72
2022-09-20T09:57:16.332Z,72.01
2022-09-20T09:58:29.620Z,71.34
2022-09-20T09:59:57.626Z,71.29
2022-09-20T10:01:05.481Z,71.07
2022-09-20T10:02:23.702Z,72.14
2022-09-20T10:03:39.509Z,71.81
2022-09-20T10:04:49.191Z,70.75
2022-09-20T10:06:04.609Z,71.86
2022-09-20T10:07:15.477Z,71.67
2022-09-20T10:08:29.540Z,70.71
2022-09-20T10:09:57.119Z,71.39
2022-09-20T10:11:11.346Z,71.39
2022-09-20T10:12:27.386Z,70.40
2022-09-20T10:13:40.583Z,70.65
2022-09-20T10:14:59.052Z,69.72
2022-09-20T10:16:10.109Z,70.86
2022-09-20T10:17:31.318Z,69.81
2022-09-20T10:18:43.882Z,70.67
2022-09-20T10:20:01.957Z,70.50
2022-09-20T10:21:15.181Z,69.43
2022-09-20T10:22:28.565Z,69.51
2022-09-20T10:24:04.647Z,69.42
2022-09-20T10:25:18.038Z,69.93
2022-09-20T10:26:47.950Z,70.32
2022-09-20T10:28:06.312Z,70.35
2022-09-20T10:29:17.315Z,69.89
2022-09-20T10:30:23.257Z,70.38
2022-09-20T10:31:42.042Z,70.13
2022-09-20T10:32:59.808Z,70.10
2022-09-20T10:34:18.063Z,69.88
2022-09-20T10:35:29.214Z,69.96
2022-09-20T10:36:39.630Z,69.35
2022-09-20T10:37:54.031Z,69.61
2022-09-20T10:39:05.849Z,69.56
2022-09-20T10:40:25.106Z,70.27
2022-09-20T10:41:59.675Z,70.09
2022-09-20T10:43:18.140Z,70.12
2022-09-20T10:44:39.673Z,69.62
2022-09-20T10:46:14.480Z,69.26
2022-09-20T10:47:20.243Z,69.98
2022-09-20T10:48:31.149Z,69.48
2022-09-20T10:49:36.812Z,70.37
2022-09-20T10:50:46.991Z,69.15
2022-09-20T10:52:02.659Z,68.80
2022-09-20T10:53:27.138Z,68.77
2022-09-20T10:54:38.529Z,69.62
2022-09-20T10:55:51.276Z,69.60
2022-09-20T10:57:03.926Z,68.16
2022-09-20T10:58:35.042Z,67.68
2022-09-20T10:59:48.202Z,67.75
2022-09-20T11:01:02.262Z,68.58
2022-09-20T11:02:22.306Z,68.91
2022-09-20T11:03:49.041Z,68.87
2022-09-20T11:05:21.307Z,68.13
2022-09-20T11:06:32.633Z,68.58
2022-09-20T11:07:47.491Z,68.81
2022-09-20T11:08:56.335Z,69.18
2022-09-20T11:10:03.292Z,69.02
2022-09-20T11:11:12.414Z,70.49
2022-09-20T11:12:23.979Z,69.45
2022-09-20T11:13:34.991Z,69.57
2022-09-20T11:14:43.299Z,68.23
2022-09-20T11:15:51.985Z,68.17
2022-09-20T11:17:00.676Z,67.10
2022-09-20T11:18:13.067Z,67.75
2022-09-20T11:19:23.452Z,67.47
2022-09-20T11:20:30.322Z,67.60
2022-09-20T11:21:39.359Z,67.08
2022-09-20T11:22:48.268Z,67.69
2022-09-20T11:23:55.922Z,66.81
2022-09-20T11:25:06.280Z,66.78
2022-09-20T11:26:14.034Z,67.65
2022-09-20T11:27:23.941Z,66.78
2022-09-20T11:28:30.969Z,66.39
2022-09-20T11:29:38.919Z,66.39
2022-09-20T11:30:51.403Z,66.18
2022-09-20T11:31:59.046Z,65.16
2022-09-20T11:33:15.129Z,64.77
2022-09-20T11:34:22.661Z,64.29
2022-09-20T11:35:31.052Z,65.07
2022-09-20T11:36:44.293Z,64.74
2022-09-20T11:37:55.117Z,65.98
2022-09-20T11:39:03.489Z,64.87
2022-09-20T11:40:17.088Z,65.54
2022-09-20T11:41:25.803Z,66.19
2022-09-20T11:42:30.832Z,64.79
2022-09-20T11:43:35.708Z,65.76
2022-09-20T11:44:42.811Z,66.46
2022-09-20T11:45:47.911Z,66.52
2022-09-20T11:46:56.371Z,66.31
2022-09-20T11:48:02.404Z,65.79
2022-09-20T11:49:16.063Z,64.93
2022-09-20T11:50:45.239Z,64.80
2022-09-20T11:52:10.283Z,63.33
2022-09-20T11:53:25.122Z,65.03
2022-09-20T11:54:58.371Z,64.73
2022-09-20T11:56:05.108Z,65.97
2022-09-20T11:57:09.080Z,65.28
2022-09-20T11:58:16.002Z,65.30
2022-09-20T11:59:28.827Z,64.99
2022-09-20T12:00:35.182Z,64.44
2022-09-20T12:01:40.458Z,65.06
2022-09-20T12:02:49.555Z,64.57
2022-09-20T12:04:14.188Z,65.33
2022-09-20T12:05:31.406Z,64.92
2022-09-20T12:06:35.907Z,65.32
2022-09-20T12:07:41.515Z,63.33
2022-09-20T12:08:50.913Z,63.31
2022-09-20T12:09:59.026Z,65.13
2022-09-20T12:11:04.335Z,64.33
2022-09-20T12:12:32.685Z,65.15
2022-09-20T12:13:38.916Z,64.89
2022-09-20T12:14:42.241Z,64.57
2022-09-20T12:15:45.310Z,63.69
2022-09-20T12:16:49.255Z,64.63
2022-09-20T12:18:29.129Z,64.77
2022-09-20T12:19:38.384Z,65.00
2022-09-20T12:21:03.715Z,64.08
2022-09-20T12:22:33.723Z,64.77
2022-09-20T12:24:24.204Z,64.18
2022-09-20T12:25:38.646Z,63.17
2022-09-20T12:26:46.034Z,63.33
2022-09-20T12:27:57.902Z,63.27
2022-09-20T12:29:03.140Z,63.10
2022-09-20T12:30:16.797Z,63.43
2022-09-20T12:31:49.673Z,62.91
2022-09-20T12:32:57.881Z,62.76
2022-09-20T12:34:01.936Z,62.91
2022-09-20T12:36:01.572Z,62.52
2022-09-20T12:37:25.809Z,61.60
2022-09-20T12:38:37.571Z,62.01
2022-09-20T12:39:51.504Z,62.23
2022-09-20T12:41:02.233Z,61.59
2022-09-20T12:42:28.525Z,60.59
2022-09-20T12:43:34.213Z,61.37
2022-09-20T12:44:39.366Z,62.20
2022-09-20T12:45:53.538Z,61.72
2022-09-20T12:47:01.469Z,62.26
2022-09-20T12:48:03.592Z,61.86
2022-09-20T12:49:55.617Z,61.47
2022-09-20T12:51:21.589Z,61.54
2022-09-20T12:52:56.239Z,61.17
2022-09-20T12:54:01.795Z,60.13
2022-09-20T12:55:08.954Z,60.30
2022-09-20T12:56:20.052Z,60.15
2022-09-20T12:57:33.104Z,60.05
2022-09-20T12:58:41.509Z,60.97
2022-09-20T12:59:43.452Z,60.89
2022-09-20T13:00:49.204Z,60.39
2022-09-20T13:01:52.235Z,59.73
2022-09-20T13:02:59.540Z,61.04
2022-09-20T13:04:55.126Z,60.88
2022-09-20T13:06:26.020Z,59.93
2022-09-20T13:07:47.480Z,59.95
2022-09-20T13:08:52.468Z,60.10
2022-09-20T13:09:56.327Z,60.01
2022-09-20T13:11:03.343Z,61.40
2022-09-20T13:12:05.677Z,60.56
2022-09-20T13:13:27.958Z,60.76
2022-09-20T13:14:34.120Z,61.30
2022-09-20T13:15:36.095Z,61.19
2022-09-20T13:16:48.135Z,61.96
2022-09-20T13:17:53.655Z,61.21
2022-09-20T13:19:05.217Z,60.47
2022-09-20T13:20:17.062Z,60.50
2022-09-20T13:21:20.059Z,59.58
2022-09-20T13:22:25.707Z,60.30
2022-09-20T13:23:32.091Z,59.64
2022-09-20T13:24:38.303Z,60.76
2022-09-20T13:25:41.671Z,60.24
2022-09-20T13:26:47.826Z,60.62
2022-09-20T13:27:57.264Z,61.20
2022-09-20T13:29:00.435Z,60.70
2022-09-20T13:30:20.306Z,59.67
2022-09-20T13:31:28.677Z,58.91
2022-09-20T13:32:34.406Z,58.68
2022-09-20T13:33:36.255Z,59.29
2022-09-20T13:34:39.075Z,60.18
2022-09-20T13:35:41.807Z,58.37
2022-09-20T13:36:46.566Z,58.79
2022-09-20T13:37:54.523Z,59.44
2022-09-20T13:38:57.973Z,57.88
2022-09-20T13:40:01.263Z,59.34
2022-09-20T13:41:09.017Z,59.00
2022-09-20T13:42:19.729Z,57.45
2022-09-20T13:43:28.330Z,58.65
2022-09-20T13:44:34.308Z,58.57
2022-09-20T13:45:43.216Z,59.27
2022-09-20T13:46:45.983Z,59.28
2022-09-20T13:47:54.299Z,59.42
2022-09-20T13:49:11.525Z,58.44
2022-09-20T13:50:22.144Z,58.73
2022-09-20T13:51:26.417Z,59.34
2022-09-20T13:52:31.438Z,59.76
2022-09-20T13:53:41.934Z,59.79
2022-09-20T13:54:45.149Z,60.06
2022-09-20T13:55:48.179Z,59.48
2022-09-20T13:56:52.445Z,60.58
2022-09-20T13:57:59.505Z,59.49
2022-09-20T13:59:06.125Z,58.98
2022-09-20T14:00:15.482Z,59.02
2022-09-20T14:01:29.887Z,58.23
2022-09-20T14:02:34.011Z,57.88
2022-09-20T14:03:37.645Z,58.34
2022-09-20T14:04:40.460Z,59.13
2022-09-20T14:05:47.990Z,59.42
2022-09-20T14:06:52.539Z,58.42
2022-09-20T14:07:56.377Z,58.57
2022-09-20T14:09:01.568Z,57.89
2022-09-20T14:10:08.233Z,58.86
2022-09-20T14:11:16.663Z,58.37
2022-09-20T14:12:20.949Z,58.03
2022-09-20T14:13:22.873Z,56.79
2022-09-20T14:14:26.809Z,56.69
2022-09-20T14:15:33.941Z,56.82
2022-09-20T14:16:41.943Z,56.95
2022-09-20T14:17:45.231Z,56.48
2022-09-20T14:18:48.648Z,55.44
2022-09-20T14:19:54.572Z,55.53
2022-09-20T14:20:56.873Z,55.98
2022-09-20T14:22:04.140Z,56.00
2022-09-20T14:23:06.021Z,56.01
2022-09-20T14:24:25.993Z,56.21
2022-09-20T14:25:29.541Z,58.02
2022-09-20T14:26:33.590Z,57.41
2022-09-20T14:27:36.382Z,57.81
2022-09-20T14:28:38.172Z,58.75
2022-09-20T14:29:43.056Z,58.04
2022-09-20T14:30:47.603Z,58.34
2022-09-20T14:31:50.855Z,58.60
2022-09-20T14:32:56.208Z,58.91
2022-09-20T14:34:00.936Z,59.60
2022-09-20T14:35:08.208Z,59.18
2022-09-20T14:36:15.906Z,59.13
2022-09-20T14:37:25.669Z,59.02
2022-09-20T14:38:27.898Z,57.52
2022-09-20T14:39:30.737Z,59.27
2022-09-20T14:40:43.228Z,59.39
2022-09-20T14:41:46.489Z,58.59
2022-09-20T14:42:53.262Z,56.89
2022-09-20T14:43:57.481Z,57.36
2022-09-20T14:45:00.670Z,57.72
2022-09-20T14:46:05.890Z,57.50
2022-09-20T14:47:16.308Z,56.79
2022-09-20T14:48:37.084Z,56.33
2022-09-20T14:49:44.312Z,56.31
2022-09-20T14:51:07.940Z,56.92
2022-09-20T14:52:32.605Z,58.99
2022-09-20T14:53:38.164Z,56.94
2022-09-20T14:54:41.176Z,57.39
2022-09-20T14:55:58.148Z,57.82
2022-09-20T14:57:03.789Z,57.20
2022-09-20T14:58:10.032Z,58.30
2022-09-20T14:59:25.728Z,59.17
2022-09-20T15:00:29.690Z,59.03
2022-09-20T15:01:32.878Z,58.53
2022-09-20T15:02:36.449Z,57.34
2022-09-20T15:03:41.415Z,58.05
2022-09-20T15:04:54.190Z,57.71
2022-09-20T15:05:57.009Z,57.85
2022-09-20T15:07:02.167Z,57.31
2022-09-20T15:08:05.055Z,58.23
2022-09-20T15:09:06.977Z,58.02
2022-09-20T15:10:13.354Z,68.57
2022-09-20T15:11:16.802Z,59.97
2022-09-20T15:12:20.711Z,57.51
2022-09-20T15:13:23.560Z,57.92
2022-09-20T15:14:25.430Z,56.51
2022-09-20T15:15:28.229Z,56.56
2022-09-20T15:16:30.463Z,58.51
2022-09-20T15:17:33.259Z,55.80
2022-09-20T15:18:41.121Z,55.71
2022-09-20T15:19:44.007Z,55.62
2022-09-20T15:20:45.830Z,55.58
2022-09-20T15:21:48.598Z,57.43